Walton, NE

7:40 AM CST on November 28, 2014 (GMT -0600)
Lincoln Municipal | Change Station
CLOSE
Current Station
Airport
Location: Lincoln,
Elevation: 1188 ft
Nearby Weather Stations

Elev 1188 ft 40.85 °N, 96.76 °W | Updated 46 minutes ago

Clear
Clear
24 °F
Feels Like 18 °F
N
5
Wind Variable Wind from SSE

Today
High -- | Low -- °F
--% Chance of Precip.
Yesterday
High -- | Low -- °F
Precip. -- in
7:27 AM 5:00 PM
Waxing Crescent, 40% visible
Pressure 29.95 in
Visibility 10.0 miles
Clouds Clear
Windchill 18 °F
Dew Point 19 °F
Humidity 81%
Rainfall 0.00 in
Snow Depth Not available.
UV 0 out of 12
Pollen .10 out of 12
Air Quality Not available.
Flu Activity Not available.
METAR KLNK 281254Z 15004KT 10SM CLR M04/M07 A2991 RMK AO2 SLP142 T10441072

More Conditions Fewer Conditions

Pressure 29.95 in
Visibility 10.0 miles
Clouds Clear
Windchill 18 °F
Dew Point 19 °F
Humidity 81%
Rainfall 0.00 in
Snow Depth Not available.
UV 0 out of 12
Pollen .10 out of 12
Air Quality Not available.
Flu Activity Not available.
METAR KLNK 281254Z 15004KT 10SM CLR M04/M07 A2991 RMK AO2 SLP142 T10441072

More Conditions Fewer Conditions

10-Day Weather Forecast

Almanac

Astronomy

Nov. 28, 2014 Rise Set
Actual Time
Civil Twilight
Nautical Twilight
Astronomical Twilight
Moon
Length of Visible Light
Length of Day
Tomorrow will be .
, % of the Moon is Illuminated

Today's Extremes

State Highs State Lows

Community

WunderPhotos

Upload Photos

1,774,210 photos uploaded!

WunderBlogs® & News

Nearby

Air Quality

  Air Quality AQ Index Pollutant
Not available.

Snow Depth

Station Depth Elevation

Earthquake Activity

City Distance Mag. Time & Date
Minimum magnitude displayed is 2.5.

Coastal Water Temperatures

Place Temperature

Nearby Weather Stations